Terminal Aerodrome Forecast
Issued by NWS Spokane, WA

Home | Current Version | Previous Version | Text Only | Print | Product List | Glossary On
Versions: 1 2 3 4 5 6 7 8 9 10 11 12 13 14 15 16 17 18 19 20 21 22 23 24 25 26 27 28 29 30 31 32 33 34 35 36 37 38 39 40 41 42 43 44 45
000
FTUS46 KOTX 272329
TAFGEG
TAF
KGEG 272329Z 2800/2824 03004KT 6SM BR SCT002 BKN200
     FM280200 04004KT P6SM BKN200
     FM280700 04003KT 3SM BR BKN009
     FM281000 00000KT 1/2SM FZFG VV002
     FM282100 VRB03KT 2SM BR OVC004=

USA.gov is the U.S. government's official web portal to all federal, state and local government web resources and services.